Foreston, Minnesota
Current Conditions -  °F | °C
As of 8:14 AM on Thursday 18 Dec 2014 (Local Time) from KPNM Reporting Station
Light Snow Light Snow  
Wind Chill: 18°   Ceiling: 1400
Heat Index: 18°   Visibility: 10mi
Dew Point: 16°   Wind: 0mph
Humidity: 93%   Direction: NA
Pressure: 30.29"   Gusts: NA
Location:  45.73°N, 93.71°W
Report Text: KPNM 181414Z AUTO 00000KT 10SM -SN OVC014 M08/M09 A3029 RMK AO2
Loading
Personal Weather Stations






























Interactive Weather Map New forecast layout! Learn more

10-Day Weather Forecast

Advertisements
Track Severe Weather on mobile